Time;durP1;ratioP1;P1;durP2;ratioP2;P2;SDS_P1;SDS_P2;PMS_P1;PMS_P2;Temp;Humidity;BMP_temperature;BMP_pressure;BME280_temperature;BME280_humidity;BME280_pressure;Samples;Min_cycle;Max_cycle;Signal;HPM_P1;HPM_P2
2022/08/19 00:01:25;;;;;;;10.70;9.40;;;;;;;23.13;64.78;99905.98;117383;1185;23573;-64
2022/08/19 00:04:00;;;;;;;11.50;9.40;;;;;;;23.12;64.74;99906.29;117397;1188;21851;-64
2022/08/19 00:06:28;;;;;;;11.50;9.60;;;;;;;23.12;64.82;99905.75;117373;1187;21843;-64
2022/08/19 00:08:55;;;;;;;10.50;9.50;;;;;;;23.11;64.84;99902.92;117299;1186;23763;-59
2022/08/19 00:11:22;;;;;;;10.70;9.60;;;;;;;23.09;64.75;99901.98;117388;1186;23601;-59
2022/08/19 00:13:52;;;;;;;11.50;10.40;;;;;;;23.06;64.80;99901.14;117342;1185;21862;-65
2022/08/19 00:16:22;;;;;;;10.50;9.50;;;;;;;23.05;64.81;99902.48;117360;1185;23576;-59
2022/08/19 00:18:54;;;;;;;11.00;9.80;;;;;;;23.03;64.78;99904.39;117376;1185;21860;-60
2022/08/19 00:21:26;;;;;;;10.80;9.80;;;;;;;23.05;64.68;99904.60;117391;1182;23079;-65
2022/08/19 00:23:54;;;;;;;10.30;9.30;;;;;;;23.07;64.53;99909.15;117411;1186;22922;-60
2022/08/19 00:26:21;;;;;;;10.80;9.80;;;;;;;23.05;64.44;99903.33;117430;1186;21858;-59
2022/08/19 00:28:47;;;;;;;10.60;9.50;;;;;;;23.03;64.54;99902.60;117372;1186;23594;-65
2022/08/19 00:31:15;;;;;;;11.10;9.70;;;;;;;23.01;64.55;99906.48;117445;1182;22951;-60
2022/08/19 00:33:42;;;;;;;11.50;10.30;;;;;;;22.99;64.55;99907.89;117440;1184;23552;-60
2022/08/19 00:36:09;;;;;;;12.00;9.70;;;;;;;22.98;64.69;99910.86;117356;1182;23560;-60
2022/08/19 00:38:39;;;;;;;10.20;9.20;;;;;;;22.97;64.59;99909.65;117400;1186;22975;-59
2022/08/19 00:41:06;;;;;;;13.20;10.00;;;;;;;22.95;64.61;99908.52;117427;1183;22915;-59
2022/08/19 00:43:33;;;;;;;11.00;9.90;;;;;;;22.93;64.74;99909.04;117448;1184;23551;-59
2022/08/19 00:46:02;;;;;;;11.40;10.10;;;;;;;22.93;64.74;99907.44;117381;1182;21870;-59
2022/08/19 00:48:29;;;;;;;11.00;9.90;;;;;;;22.93;64.66;99900.66;117434;1182;22922;-63
2022/08/19 00:50:56;;;;;;;11.10;10.00;;;;;;;22.93;64.71;99894.77;117363;1185;22619;-59
2022/08/19 00:53:26;;;;;;;13.60;9.40;;;;;;;22.93;64.72;99896.36;117370;1183;23012;-64
2022/08/19 00:55:54;;;;;;;11.10;9.90;;;;;;;22.92;64.72;99896.45;117417;1185;22021;-64
2022/08/19 00:58:24;;;;;;;10.70;9.50;;;;;;;22.92;64.66;99893.23;117360;1182;23582;-64
2022/08/19 01:00:50;;;;;;;11.30;10.20;;;;;;;22.93;64.62;99888.86;117356;1182;22914;-60
2022/08/19 01:03:19;;;;;;;10.80;9.70;;;;;;;22.94;64.57;99886.85;117396;1182;23573;-65
2022/08/19 01:05:46;;;;;;;10.90;9.80;;;;;;;22.92;64.60;99889.45;117441;1188;21911;-64
2022/08/19 01:08:13;;;;;;;11.30;10.10;;;;;;;22.90;64.58;99891.02;117281;1185;23555;-59
2022/08/19 01:10:47;;;;;;;12.90;10.40;;;;;;;22.87;64.58;99891.39;117266;1186;21859;-64
2022/08/19 01:13:15;;;;;;;10.20;9.20;;;;;;;22.87;64.61;99890.36;117297;1183;23088;-65
2022/08/19 01:15:48;;;;;;;10.60;9.40;;;;;;;22.87;64.55;99883.91;117332;1182;22926;-65
2022/08/19 01:18:16;;;;;;;11.70;10.20;;;;;;;22.85;64.48;99886.73;117251;1186;22899;-65
2022/08/19 01:20:44;;;;;;;10.70;9.60;;;;;;;22.84;64.58;99888.25;117246;1183;23009;-65
2022/08/19 01:23:11;;;;;;;11.30;10.30;;;;;;;22.82;64.51;99889.64;117354;1186;23551;-64
2022/08/19 01:25:49;;;;;;;12.80;11.10;;;;;;;22.80;64.55;99892.09;117355;1185;23660;-65
2022/08/19 01:28:25;;;;;;;13.00;11.20;;;;;;;22.78;64.66;99890.42;117375;1186;21869;-65
2022/08/19 01:31:08;;;;;;;11.90;10.60;;;;;;;22.75;64.73;99889.55;117124;1188;22098;-59
2022/08/19 01:33:35;;;;;;;12.60;11.30;;;;;;;22.73;64.79;99890.09;117318;1186;23588;-65
2022/08/19 01:36:11;;;;;;;14.60;12.00;;;;;;;22.72;64.99;99888.71;117136;1186;23554;-65
2022/08/19 01:38:41;;;;;;;13.00;11.70;;;;;;;22.68;65.01;99893.30;117058;1187;21857;-60
2022/08/19 01:41:11;;;;;;;13.50;11.70;;;;;;;22.72;64.93;99898.71;117328;1186;21868;-59
2022/08/19 01:43:38;;;;;;;13.20;11.70;;;;;;;22.74;64.82;99900.39;117318;1184;21909;-60
2022/08/19 01:46:25;;;;;;;12.70;11.40;;;;;;;22.75;64.84;99899.58;117356;1185;22646;-65
2022/08/19 01:48:52;;;;;;;14.70;13.30;;;;;;;22.75;64.84;99897.65;117263;1184;22929;-60
2022/08/19 01:51:19;;;;;;;14.40;12.40;;;;;;;22.73;64.82;99896.50;117261;1186;22813;-64
2022/08/19 01:53:50;;;;;;;14.10;11.60;;;;;;;22.73;64.87;99898.14;117325;1185;22997;-65
2022/08/19 01:56:17;;;;;;;16.80;12.50;;;;;;;22.71;64.79;99901.46;117278;1183;23555;-59
2022/08/19 01:58:49;;;;;;;13.40;11.90;;;;;;;22.70;64.88;99899.98;117383;1185;22998;-59
2022/08/19 02:01:16;;;;;;;14.10;12.70;;;;;;;22.69;64.91;99901.27;117312;1182;22929;-60
2022/08/19 02:03:43;;;;;;;14.50;12.90;;;;;;;22.66;64.94;99906.29;117162;1180;23858;-61
2022/08/19 02:06:10;;;;;;;15.60;13.10;;;;;;;22.65;64.94;99906.77;117282;1186;21861;-63
2022/08/19 02:08:37;;;;;;;14.30;12.60;;;;;;;22.65;64.96;99904.38;117289;1185;22949;-63
2022/08/19 02:11:05;;;;;;;14.30;12.80;;;;;;;22.66;64.98;99903.41;117306;1182;22925;-61
2022/08/19 02:13:32;;;;;;;16.30;12.50;;;;;;;22.67;64.96;99903.91;117253;1186;23580;-66
2022/08/19 02:15:59;;;;;;;14.90;13.50;;;;;;;22.66;64.97;99907.00;117334;1186;21860;-61
2022/08/19 02:18:30;;;;;;;14.60;13.10;;;;;;;22.65;64.92;99907.13;117255;1186;21954;-66
2022/08/19 02:20:56;;;;;;;13.90;12.40;;;;;;;22.64;64.87;99908.45;117100;1182;21931;-61
2022/08/19 02:23:24;;;;;;;14.00;12.20;;;;;;;22.63;64.94;99910.13;117376;1185;21860;-62
2022/08/19 02:25:51;;;;;;;14.80;13.30;;;;;;;22.59;64.97;99917.70;117340;1185;21845;-59
2022/08/19 02:28:18;;;;;;;15.50;13.20;;;;;;;22.53;65.06;99919.21;117332;1189;21871;-60
2022/08/19 02:30:45;;;;;;;13.90;12.50;;;;;;;22.51;65.17;99922.05;117105;1184;23654;-60
2022/08/19 02:33:12;;;;;;;13.70;12.30;;;;;;;22.47;65.31;99922.14;117128;1183;22991;-64
2022/08/19 02:35:43;;;;;;;17.00;13.40;;;;;;;22.42;65.39;99925.09;117293;1186;21882;-59
2022/08/19 02:38:26;;;;;;;15.00;13.60;;;;;;;22.38;65.47;99927.30;117244;1185;21856;-59
2022/08/19 02:40:55;;;;;;;15.90;13.80;;;;;;;22.30;65.71;99924.14;117099;1184;24165;-64
2022/08/19 02:43:22;;;;;;;17.40;13.80;;;;;;;22.14;66.39;99932.00;117097;1187;21891;-64
2022/08/19 02:45:51;;;;;;;15.40;13.80;;;;;;;22.10;66.41;99928.35;117344;1185;21876;-59
2022/08/19 02:48:19;;;;;;;15.30;13.70;;;;;;;22.09;66.47;99927.16;117305;1185;23462;-65
2022/08/19 02:50:50;;;;;;;17.10;14.20;;;;;;;22.09;66.46;99929.98;117367;1186;22095;-64
2022/08/19 02:53:19;;;;;;;15.90;14.20;;;;;;;22.11;66.39;99931.50;117113;1185;22240;-64
2022/08/19 02:55:46;;;;;;;15.80;14.30;;;;;;;22.12;66.39;99930.30;117083;1185;22619;-64
2022/08/19 02:58:14;;;;;;;16.00;14.30;;;;;;;22.15;66.33;99929.09;117305;1184;21870;-64
2022/08/19 03:00:45;;;;;;;15.70;13.60;;;;;;;22.17;66.29;99928.58;117393;1185;23037;-63
2022/08/19 03:03:13;;;;;;;14.70;13.30;;;;;;;22.21;66.25;99927.99;117177;1185;22932;-64
2022/08/19 03:05:40;;;;;;;15.40;13.80;;;;;;;22.20;66.25;99926.77;117220;1183;24166;-61
2022/08/19 03:08:23;;;;;;;22.40;15.00;;;;;;;22.21;66.09;99930.27;117144;1185;21841;-60
2022/08/19 03:10:52;;;;;;;18.20;12.60;;;;;;;22.26;65.96;99932.64;119265;1186;21845;-66
2022/08/19 03:13:19;;;;;;;14.90;13.40;;;;;;;22.22;66.09;99929.66;119166;1187;21859;-61
2022/08/19 03:15:47;;;;;;;16.50;13.90;;;;;;;22.24;66.13;99937.42;117191;1183;21871;-64
2022/08/19 03:18:14;;;;;;;14.50;13.10;;;;;;;22.25;66.09;99940.88;117305;1185;22162;-61
2022/08/19 03:20:47;;;;;;;14.20;12.70;;;;;;;22.25;66.06;99942.50;117387;1186;21838;-60
2022/08/19 03:23:15;;;;;;;15.20;13.80;;;;;;;22.25;66.10;99940.39;117366;1186;23018;-60
2022/08/19 03:25:44;;;;;;;16.10;14.00;;;;;;;22.25;66.03;99940.91;117350;1184;22648;-60
2022/08/19 03:28:12;;;;;;;15.90;14.30;;;;;;;22.26;65.98;99936.00;117311;1185;21845;-65
2022/08/19 03:30:40;;;;;;;15.50;13.80;;;;;;;22.28;66.11;99934.65;117326;1185;21862;-65
2022/08/19 03:33:10;;;;;;;17.30;13.50;;;;;;;22.30;65.85;99932.89;117395;1184;21853;-65
2022/08/19 03:35:44;;;;;;;16.70;13.50;;;;;;;22.31;66.02;99933.73;117395;1186;22989;-60
2022/08/19 03:38:11;;;;;;;16.80;14.70;;;;;;;22.31;66.04;99940.68;117390;1182;22928;-65
2022/08/19 03:40:38;;;;;;;17.20;12.90;;;;;;;22.33;66.17;99944.50;117457;1182;23576;-66
2022/08/19 03:43:05;;;;;;;16.30;14.30;;;;;;;22.37;66.30;99948.68;117439;1186;22166;-60
2022/08/19 03:45:32;;;;;;;16.30;14.60;;;;;;;22.38;66.48;99947.52;117415;1185;22989;-64
2022/08/19 03:48:00;;;;;;;15.50;14.00;;;;;;;22.43;66.42;99951.88;117363;1184;21854;-60
2022/08/19 03:50:27;;;;;;;16.60;15.00;;;;;;;22.46;66.58;99957.77;117424;1182;21854;-66
2022/08/19 03:52:54;;;;;;;16.60;14.90;;;;;;;22.50;66.76;99958.90;117394;1182;22893;-66
2022/08/19 03:55:21;;;;;;;16.90;14.60;;;;;;;22.60;66.60;99961.99;117434;1186;22531;-66
2022/08/19 03:57:48;;;;;;;14.40;13.10;;;;;;;22.64;66.58;99960.83;117411;1180;22921;-66
2022/08/19 04:00:16;;;;;;;15.70;14.20;;;;;;;22.68;66.45;99958.88;117305;1185;22255;-66
2022/08/19 04:02:43;;;;;;;16.80;14.70;;;;;;;22.72;66.69;99963.48;117353;1182;23596;-60
2022/08/19 04:05:28;;;;;;;16.70;14.30;;;;;;;22.76;66.78;99963.73;117314;1181;21854;-61
2022/08/19 04:07:58;;;;;;;17.10;15.30;;;;;;;22.81;66.97;99968.92;117362;1186;24817;-66
2022/08/19 04:10:28;;;;;;;15.70;13.50;;;;;;;22.88;66.86;99970.42;117976;1185;23362;-61
2022/08/19 04:12:54;;;;;;;15.70;14.10;;;;;;;22.94;66.68;99970.52;117130;1186;21969;-66
2022/08/19 04:15:21;;;;;;;15.80;14.20;;;;;;;23.03;66.72;99970.61;117010;1186;23014;-66
2022/08/19 04:17:49;;;;;;;15.70;14.20;;;;;;;23.08;66.63;99968.30;119317;1186;21802;-62
2022/08/19 04:20:15;;;;;;;15.70;14.10;;;;;;;23.16;66.53;99969.51;117679;1185;23432;-61
2022/08/19 04:22:42;;;;;;;15.70;13.50;;;;;;;23.24;66.77;99968.98;117190;1185;21857;-61
2022/08/19 04:25:10;;;;;;;15.20;13.60;;;;;;;23.28;66.60;99963.27;117114;1184;23541;-64
2022/08/19 04:27:37;;;;;;;16.80;13.80;;;;;;;23.34;66.55;99962.52;117334;1182;21963;-60
2022/08/19 04:30:05;;;;;;;15.70;14.10;;;;;;;23.45;66.49;99962.10;117258;1182;24145;-65
2022/08/19 04:32:31;;;;;;;15.80;14.20;;;;;;;23.53;66.66;99963.13;117303;1186;22999;-60
2022/08/19 04:34:58;;;;;;;16.20;14.50;;;;;;;23.60;66.64;99962.59;117364;1185;23552;-65
2022/08/19 04:37:43;;;;;;;15.60;13.80;;;;;;;23.66;66.70;99966.64;117425;1186;23482;-61
2022/08/19 04:42:56;;;;;;;14.80;13.40;;;;;;;23.80;66.57;99966.52;117285;1185;23487;-60
2022/08/19 04:45:23;;;;;;;18.60;13.70;;;;;;;23.88;66.53;99974.55;117352;1186;23062;-66
2022/08/19 04:47:55;;;;;;;16.20;14.20;;;;;;;23.92;66.37;99974.59;117263;1183;23488;-61
2022/08/19 04:50:27;;;;;;;15.90;14.20;;;;;;;23.99;66.34;99976.25;117348;1183;22899;-60
2022/08/19 04:52:55;;;;;;;16.70;15.00;;;;;;;24.04;66.41;99976.04;117383;1185;23448;-66
2022/08/19 04:55:25;;;;;;;21.60;18.40;;;;;;;24.20;66.31;99980.28;117374;1183;22178;-61
2022/08/19 04:57:53;;;;;;;19.40;17.40;;;;;;;24.28;66.02;99977.52;117286;1186;22095;-61
2022/08/19 05:00:20;;;;;;;18.70;16.70;;;;;;;24.35;65.94;99979.98;117211;1182;23667;-61
2022/08/19 05:02:48;;;;;;;22.30;19.00;;;;;;;24.37;66.03;99982.37;117046;1184;22813;-59
2022/08/19 05:05:16;;;;;;;19.10;17.10;;;;;;;24.36;66.36;99984.05;117253;1182;22407;-59
2022/08/19 05:07:44;;;;;;;16.30;14.60;;;;;;;24.40;66.55;99982.67;117297;1185;23552;-60
2022/08/19 05:10:11;;;;;;;15.50;14.10;;;;;;;24.45;66.35;99983.20;117301;1185;21988;-59
2022/08/19 05:12:39;;;;;;;15.50;13.00;;;;;;;24.50;66.39;99977.42;117149;1186;22651;-59
2022/08/19 05:15:08;;;;;;;16.90;14.70;;;;;;;24.57;66.33;99976.04;117251;1185;23674;-59
2022/08/19 05:17:35;;;;;;;15.20;13.20;;;;;;;24.63;66.30;99980.18;117286;1186;22609;-60
2022/08/19 05:22:52;;;;;;;16.20;11.90;;;;;;;24.79;66.27;99977.96;118414;1182;22949;-60
2022/08/19 05:25:20;;;;;;;14.30;12.80;;;;;;;24.87;66.10;99975.00;116995;1188;23098;-60
2022/08/19 05:27:48;;;;;;;15.60;12.10;;;;;;;24.93;66.14;99974.85;119352;1185;21922;-60
2022/08/19 05:30:15;;;;;;;14.00;12.00;;;;;;;25.10;65.83;99970.48;117134;1185;21987;-59
2022/08/19 05:32:43;;;;;;;13.60;12.00;;;;;;;25.12;65.83;99972.46;117183;1185;21852;-65
2022/08/19 05:35:11;;;;;;;13.50;11.90;;;;;;;25.13;65.76;99969.35;117159;1186;21844;-65
2022/08/19 05:37:40;;;;;;;13.00;11.40;;;;;;;25.18;66.03;99964.27;117347;1186;22166;-59
2022/08/19 05:40:08;;;;;;;13.20;11.50;;;;;;;25.25;65.87;99962.95;117688;1186;24611;-59
2022/08/19 05:42:37;;;;;;;15.20;11.60;;;;;;;25.32;65.74;99964.17;117321;1187;22863;-65
2022/08/19 05:45:05;;;;;;;19.50;11.70;;;;;;;25.43;65.68;99965.34;117524;1186;21921;-59
2022/08/19 05:47:32;;;;;;;13.40;11.10;;;;;;;25.53;65.50;99963.14;117133;1183;23558;-64
2022/08/19 05:50:01;;;;;;;13.40;10.50;;;;;;;25.60;65.55;99968.27;117019;1184;22950;-64
2022/08/19 05:52:31;;;;;;;13.30;10.50;;;;;;;25.69;65.68;99969.67;117113;1186;22844;-59
2022/08/19 05:54:59;;;;;;;16.60;12.10;;;;;;;25.80;65.69;99970.56;117376;1186;21948;-64
2022/08/19 05:57:28;;;;;;;13.50;10.60;;;;;;;25.94;65.52;99969.80;117119;1186;22969;-64
2022/08/19 05:59:57;;;;;;;12.70;10.90;;;;;;;26.05;65.43;99969.44;117194;1186;23488;-64
2022/08/19 06:02:26;;;;;;;16.70;10.00;;;;;;;26.18;65.31;99967.49;117284;1183;23565;-59
2022/08/19 06:04:53;;;;;;;16.00;10.50;;;;;;;26.35;65.03;99970.33;117162;1187;22979;-59
2022/08/19 06:07:20;;;;;;;11.90;9.70;;;;;;;26.49;64.87;99966.28;117139;1186;23581;-59
2022/08/19 06:09:47;;;;;;;16.40;10.10;;;;;;;26.63;64.59;99964.77;117103;1186;23452;-64
2022/08/19 06:12:28;;;;;;;12.50;9.90;;;;;;;26.75;64.57;99964.81;117144;1186;21867;-64
2022/08/19 06:14:55;;;;;;;11.40;10.10;;;;;;;26.87;64.66;99968.78;117194;1185;23041;-64
2022/08/19 06:17:29;;;;;;;13.00;8.90;;;;;;;27.02;64.62;99967.86;117239;1185;21855;-63
2022/08/19 06:19:58;;;;;;;10.80;9.20;;;;;;;27.17;64.61;99963.31;117202;1182;21867;-64
2022/08/19 06:22:27;;;;;;;13.10;9.50;;;;;;;27.25;64.65;99965.44;117139;1186;21871;-59
2022/08/19 06:24:55;;;;;;;10.50;9.20;;;;;;;27.39;64.52;99964.61;117123;1188;23487;-65
2022/08/19 06:27:23;;;;;;;13.80;9.40;;;;;;;27.60;64.30;99967.79;117215;1186;21867;-65
2022/08/19 06:29:50;;;;;;;11.50;9.20;;;;;;;27.87;63.97;99965.55;117187;1186;22772;-59
2022/08/19 06:32:18;;;;;;;11.60;9.00;;;;;;;28.10;63.73;99968.65;117132;1180;22629;-59
2022/08/19 06:34:46;;;;;;;11.10;9.00;;;;;;;28.25;63.35;99970.91;119348;1186;21799;-60
2022/08/19 06:37:13;;;;;;;10.00;8.30;;;;;;;28.42;63.01;99971.11;119337;1185;21822;-66
2022/08/19 06:39:41;;;;;;;8.80;7.40;;;;;;;28.63;63.14;99969.67;117229;1186;21861;-65
2022/08/19 06:42:11;;;;;;;10.90;6.80;;;;;;;28.87;62.60;99965.66;117220;1186;22946;-64
2022/08/19 06:44:40;;;;;;;14.90;7.80;;;;;;;29.04;62.22;99968.53;117153;1186;22115;-65
2022/08/19 06:47:11;;;;;;;11.20;6.70;;;;;;;29.15;62.33;99969.05;117144;1185;22920;-59
2022/08/19 06:49:41;;;;;;;12.70;6.80;;;;;;;29.33;62.12;99967.54;117401;1182;23733;-60
2022/08/19 06:52:12;;;;;;;12.20;6.80;;;;;;;29.49;62.12;99966.02;117220;1186;22706;-65
2022/08/19 06:54:41;;;;;;;8.70;6.40;;;;;;;29.66;62.06;99969.42;117195;1185;22971;-65
2022/08/19 06:57:23;;;;;;;9.30;5.90;;;;;;;29.85;61.90;99966.56;117075;1187;22949;-65
2022/08/19 06:59:51;;;;;;;10.10;6.70;;;;;;;30.03;61.44;99966.25;117168;1189;22619;-64
2022/08/19 07:02:18;;;;;;;11.10;6.50;;;;;;;30.15;61.23;99963.84;117230;1185;21864;-60
2022/08/19 07:04:45;;;;;;;11.00;6.30;;;;;;;30.26;61.23;99960.17;117360;1186;21867;-60
2022/08/19 07:07:14;;;;;;;10.50;6.10;;;;;;;30.42;61.14;99964.15;117133;1187;21844;-66
2022/08/19 07:09:48;;;;;;;9.70;6.40;;;;;;;30.65;60.90;99969.56;117015;1185;21855;-60
2022/08/19 07:12:26;;;;;;;8.50;6.40;;;;;;;30.86;60.56;99966.80;119376;1183;22124;-61
2022/08/19 07:14:55;;;;;;;12.20;6.70;;;;;;;31.07;60.31;99966.67;119416;1185;21793;-64
2022/08/19 07:17:23;;;;;;;9.90;6.40;;;;;;;31.24;60.27;99965.83;119270;1182;21798;-60
2022/08/19 07:19:51;;;;;;;9.60;6.50;;;;;;;31.35;59.13;99962.15;119388;1184;21822;-64
2022/08/19 07:22:22;;;;;;;11.70;7.50;;;;;;;31.44;59.10;99971.16;117999;1186;24187;-63
2022/08/19 07:24:52;;;;;;;12.40;5.90;;;;;;;31.61;59.22;99976.59;117309;1186;22992;-64
2022/08/19 07:27:19;;;;;;;10.30;5.50;;;;;;;31.71;58.57;99982.59;117335;1186;23605;-66
2022/08/19 07:29:52;;;;;;;10.70;5.70;;;;;;;31.85;58.75;99985.63;117279;1186;21856;-66
2022/08/19 07:32:26;;;;;;;13.50;6.30;;;;;;;32.15;58.61;99986.38;117382;1186;21845;-65
2022/08/19 07:34:54;;;;;;;9.90;6.10;;;;;;;32.39;58.06;99982.52;117358;1182;24269;-64
2022/08/19 07:37:28;;;;;;;9.60;4.80;;;;;;;32.51;57.57;99978.59;117448;1186;21854;-65
2022/08/19 07:40:00;;;;;;;13.30;5.50;;;;;;;32.67;57.53;99977.58;117477;1182;21855;-62
2022/08/19 07:42:29;;;;;;;17.50;6.60;;;;;;;32.81;57.14;99974.60;117440;1186;22154;-61
2022/08/19 07:44:57;;;;;;;13.20;6.90;;;;;;;32.98;57.42;99970.10;117420;1186;21855;-61
2022/08/19 07:47:24;;;;;;;18.50;9.00;;;;;;;33.14;57.70;99969.63;117282;1185;21872;-60
2022/08/19 07:50:11;;;;;;;9.10;6.00;;;;;;;33.46;57.17;99968.10;117418;1185;21916;-60
2022/08/19 07:52:40;;;;;;;13.20;7.70;;;;;;;33.64;56.87;99969.64;117363;1185;22921;-60
2022/08/19 07:55:08;;;;;;;14.50;6.90;;;;;;;33.89;56.61;99967.55;117285;1182;21863;-60
2022/08/19 07:57:55;;;;;;;9.40;6.20;;;;;;;34.01;55.99;99970.42;117378;1183;21887;-65
2022/08/19 08:00:22;;;;;;;15.80;8.50;;;;;;;34.00;54.96;99973.60;117353;1183;21918;-66
2022/08/19 08:02:51;;;;;;;12.20;7.00;;;;;;;34.09;55.25;99977.41;117361;1186;21851;-65
2022/08/19 08:09:10;;;;;;;9.70;5.30;;;;;;;34.37;54.92;99985.90;117472;1183;23574;-66
2022/08/19 08:11:16;;;;;;;6.30;4.80;;;;;;;34.54;55.29;99988.95;118233;1186;21878;-66
2022/08/19 08:13:45;;;;;;;9.20;4.80;;;;;;;34.68;54.23;99989.52;117211;1185;21870;-66
2022/08/19 08:16:29;;;;;;;8.10;5.20;;;;;;;34.67;53.31;99989.40;117214;1186;21871;-66
2022/08/19 08:18:57;;;;;;;10.70;5.10;;;;;;;34.65;52.84;99998.56;117207;1185;21892;-66
2022/08/19 08:21:24;;;;;;;10.70;4.70;;;;;;;34.54;52.64;99996.94;117196;1183;23648;-61
2022/08/19 08:23:55;;;;;;;8.50;4.50;;;;;;;34.54;53.27;99996.98;117355;1185;21845;-61
2022/08/19 08:26:23;;;;;;;7.70;5.00;;;;;;;34.64;53.02;99994.81;117271;1186;22971;-61
2022/08/19 08:28:50;;;;;;;6.30;4.40;;;;;;;34.74;53.04;99994.71;117353;1188;21864;-65
2022/08/19 08:31:18;;;;;;;9.40;5.10;;;;;;;34.85;52.23;99992.39;117283;1186;21864;-67
2022/08/19 08:33:46;;;;;;;6.60;4.30;;;;;;;34.89;51.78;99992.45;117250;1185;21883;-61
2022/08/19 08:36:14;;;;;;;8.50;4.10;;;;;;;34.85;52.16;99987.07;117584;1183;21858;-66
2022/08/19 08:38:45;;;;;;;12.00;5.00;;;;;;;34.97;52.83;99982.13;117308;1183;24161;-66
2022/08/19 08:41:25;;;;;;;6.50;4.80;;;;;;;35.21;52.59;99977.56;117309;1186;22921;-61
2022/08/19 08:43:53;;;;;;;12.10;4.60;;;;;;;35.39;51.62;99980.60;117372;1186;22680;-66
2022/08/19 08:46:26;;;;;;;9.10;4.60;;;;;;;35.40;51.73;99982.96;117471;1183;22707;-67
2022/08/19 08:49:07;;;;;;;8.20;4.70;;;;;;;35.45;51.75;99984.52;117170;1189;21854;-66
2022/08/19 08:51:39;;;;;;;8.20;4.40;;;;;;;35.58;51.71;99987.16;117295;1186;22924;-66
2022/08/19 08:54:12;;;;;;;10.00;4.40;;;;;;;35.72;51.60;99982.07;117335;1182;21854;-66
2022/08/19 08:56:41;;;;;;;6.70;4.20;;;;;;;35.92;51.19;99983.63;117301;1186;21858;-67
2022/08/19 08:59:19;;;;;;;10.00;4.60;;;;;;;36.11;50.39;99988.00;117290;1185;21909;-66
2022/08/19 09:01:46;;;;;;;8.30;3.80;;;;;;;36.38;51.18;99994.38;117235;1182;22627;-62
2022/08/19 09:04:14;;;;;;;7.20;3.90;;;;;;;36.70;50.86;99990.51;117136;1189;21859;-67
2022/08/19 09:06:56;;;;;;;8.80;4.00;;;;;;;36.96;50.29;99989.89;117118;1186;21857;-62
2022/08/19 09:09:43;;;;;;;9.50;4.10;;;;;;;37.12;49.29;99991.83;117323;1186;21862;-67
2022/08/19 09:12:25;;;;;;;6.90;3.80;;;;;;;37.23;49.26;99987.08;117219;1182;23474;-66
2022/08/19 09:14:58;;;;;;;8.00;3.80;;;;;;;37.33;49.04;99988.34;117175;1186;23493;-66
2022/08/19 09:17:33;;;;;;;6.60;3.80;;;;;;;37.52;49.16;99990.25;117429;1182;22644;-63
2022/08/19 09:20:10;;;;;;;8.80;4.90;;;;;;;37.66;48.78;99996.80;117401;1182;21865;-62
2022/08/19 09:22:37;;;;;;;12.50;7.00;;;;;;;37.74;48.97;99996.40;117270;1185;21912;-67
2022/08/19 09:25:06;;;;;;;10.30;4.80;;;;;;;37.81;48.75;100007.98;117310;1183;21867;-64
2022/08/19 09:27:32;;;;;;;10.80;4.00;;;;;;;37.86;48.70;100010.82;117281;1182;24795;-62
2022/08/19 09:30:21;;;;;;;5.90;4.20;;;;;;;38.04;48.32;100008.05;117220;1183;23449;-61
2022/08/19 09:32:48;;;;;;;8.20;4.00;;;;;;;38.23;48.35;100006.39;117135;1187;21626;-62
2022/08/19 09:35:22;;;;;;;5.30;4.10;;;;;;;38.37;48.35;100006.15;117272;1183;21867;-61
2022/08/19 09:37:50;;;;;;;8.00;3.90;;;;;;;38.60;47.93;100005.77;117242;1186;22027;-66
2022/08/19 09:40:25;;;;;;;11.40;3.60;;;;;;;38.72;47.56;100005.46;117136;1186;21870;-60
2022/08/19 09:42:56;;;;;;;8.20;3.40;;;;;;;38.82;47.56;100007.10;117158;1187;22067;-66
2022/08/19 09:45:24;;;;;;;7.60;3.70;;;;;;;39.01;46.84;100011.69;116988;1187;22053;-62
2022/08/19 09:47:52;;;;;;;9.80;3.60;;;;;;;39.09;46.68;100012.42;116976;1186;21892;-62
2022/08/19 09:50:21;;;;;;;6.70;3.60;;;;;;;39.17;46.50;100014.14;117201;1185;23497;-66
2022/08/19 09:52:48;;;;;;;9.70;3.80;;;;;;;39.26;45.07;100015.29;117105;1183;22901;-61
2022/08/19 09:55:23;;;;;;;6.40;3.70;;;;;;;39.08;44.81;100010.19;116955;1186;23467;-62
2022/08/19 09:58:01;;;;;;;6.90;3.20;;;;;;;39.00;45.87;100008.39;119322;1186;21811;-67
2022/08/19 10:00:30;;;;;;;6.20;3.20;;;;;;;39.10;46.03;100009.29;119224;1186;21828;-63
2022/08/19 10:02:57;;;;;;;11.80;4.10;;;;;;;39.31;45.57;100011.72;119327;1186;21853;-62
2022/08/19 10:08:11;;;;;;;11.30;3.40;;;;;;;39.52;45.32;100011.64;117050;1182;22991;-63
2022/08/19 10:10:43;;;;;;;7.00;3.70;;;;;;;39.59;45.31;100013.98;117114;1188;22830;-62
2022/08/19 10:13:14;;;;;;;8.30;3.50;;;;;;;39.63;45.09;100011.93;117720;1183;23576;-62
2022/08/19 10:15:41;;;;;;;7.60;3.70;;;;;;;39.84;45.23;100011.36;117089;1183;22926;-62
2022/08/19 10:18:17;;;;;;;9.20;3.30;;;;;;;39.98;44.31;100010.52;117114;1183;23031;-62
2022/08/19 10:20:50;;;;;;;8.50;3.70;;;;;;;40.10;43.82;100010.40;116965;1188;22088;-62
2022/08/19 10:23:19;;;;;;;7.00;3.70;;;;;;;40.27;43.98;100006.27;117037;1188;21871;-62
2022/08/19 10:25:47;;;;;;;7.40;3.70;;;;;;;40.35;43.88;100003.83;117174;1187;24315;-62
2022/08/19 10:28:14;;;;;;;6.80;3.70;;;;;;;40.47;44.01;99997.98;117215;1186;21913;-62
2022/08/19 10:30:46;;;;;;;8.80;3.20;;;;;;;40.51;43.38;99992.73;117014;1189;23484;-62
2022/08/19 10:33:14;;;;;;;8.90;3.50;;;;;;;40.58;43.55;99993.09;117237;1186;23205;-62
2022/08/19 10:36:04;;;;;;;9.10;3.90;;;;;;;40.73;42.96;99996.79;117147;1189;23602;-62
2022/08/19 10:38:31;;;;;;;7.60;3.80;;;;;;;40.76;42.41;100002.87;117303;1185;22967;-62
2022/08/19 10:41:06;;;;;;;5.00;3.50;;;;;;;40.72;42.82;99995.78;117370;1186;21848;-62
2022/08/19 10:43:38;;;;;;;9.10;3.00;;;;;;;40.76;42.21;99996.00;117351;1185;21864;-63
2022/08/19 10:46:09;;;;;;;11.60;3.00;;;;;;;40.82;42.32;99997.98;117399;1186;23567;-62
2022/08/19 10:48:42;;;;;;;9.60;3.70;;;;;;;40.89;42.39;99998.84;117248;1186;23696;-63
2022/08/19 10:53:56;;;;;;;7.90;3.50;;;;;;;41.14;42.09;99998.05;117336;1185;22532;-63
2022/08/19 10:59:11;;;;;;;11.40;3.50;;;;;;;41.03;41.57;100002.27;117344;1185;21885;-63
2022/08/19 11:01:38;;;;;;;12.00;3.70;;;;;;;41.09;41.86;99994.53;117357;1184;21861;-63
2022/08/19 11:04:09;;;;;;;7.00;3.30;;;;;;;41.20;41.72;99994.04;117292;1184;24279;-63
2022/08/19 11:06:38;;;;;;;7.80;3.40;;;;;;;41.28;41.79;99995.48;117319;1180;21863;-63
2022/08/19 11:09:05;;;;;;;9.50;3.60;;;;;;;41.35;41.13;99993.90;117397;1183;21847;-63
2022/08/19 11:11:32;;;;;;;9.10;3.60;;;;;;;41.36;40.47;99994.59;117366;1186;21870;-63
2022/08/19 11:14:09;;;;;;;6.50;3.40;;;;;;;41.25;40.48;99996.48;117305;1182;23818;-62
2022/08/19 11:16:38;;;;;;;6.70;3.90;;;;;;;41.23;40.84;99993.66;117325;1183;22844;-63
2022/08/19 11:19:06;;;;;;;9.60;3.70;;;;;;;41.21;40.06;99994.17;117388;1186;21872;-62
2022/08/19 11:21:36;;;;;;;;;;;;;;;41.12;39.54;99991.92;117364;1186;21893;-63
2022/08/19 11:24:07;;;;;;;12.70;3.80;;;;;;;41.05;40.16;99992.20;117225;1189;21847;-63
2022/08/19 11:26:35;;;;;;;7.30;3.00;;;;;;;41.12;40.34;99988.77;117271;1183;22896;-65
2022/08/19 11:29:02;;;;;;;9.40;3.30;;;;;;;41.33;40.72;99989.04;117417;1185;22925;-63
2022/08/19 11:31:31;;;;;;;6.20;3.20;;;;;;;41.54;40.61;99986.48;117599;1182;21856;-63
2022/08/19 11:33:59;;;;;;;9.90;3.90;;;;;;;41.69;39.74;99986.48;118405;1186;23557;-63
2022/08/19 11:36:27;;;;;;;7.70;3.50;;;;;;;41.65;38.29;99981.64;117487;1185;21858;-64
2022/08/19 11:38:54;;;;;;;7.10;3.30;;;;;;;41.45;38.05;99976.67;117288;1186;23066;-68
2022/08/19 11:41:23;;;;;;;10.00;4.00;;;;;;;41.48;38.84;99977.15;117415;1183;22617;-63
2022/08/19 11:43:53;;;;;;;6.40;3.90;;;;;;;41.60;39.60;99983.41;117442;1186;24165;-67